Flight Track Log - Related Links

Times and Time Zones

All times are in EDT time to prevent confusion due to time zone crossing. See the CTL15 flight status page for this flight to view local times or setup timezone preferences in your user account.

Time Position Orientation Groundspeed Altitude Reporting Facility
EDT Latitude Longitude Course Direction KTS MPH feet Rate Location/Type
Tue 07:44:56 PM 39.7178 -84.0656 44° Northeast 157 181 4,400  Level Indianapolis Center
Tue 07:45:45 PM 39.7408 -84.0361 44° Northeast 155 178 5,100 741 Climbing Indianapolis Center
Tue 07:46:17 PM 39.7522 -84.0167 53° Northeast 150 173 5,400 500 Climbing Indianapolis Center
Tue 07:46:45 PM 39.7697 -83.9883 51° Northeast 166 191 5,600 492 Climbing Indianapolis Center
Tue 07:47:18 PM 39.7831 -83.9711 45° Northeast 159 183 5,900 492 Climbing Indianapolis Center
Tue 07:47:46 PM 39.8044 -83.9439 44° Northeast 181 208 6,100 484 Climbing Indianapolis Center
Tue 07:48:20 PM 39.8256 -83.9153 46° Northeast 174 200 6,400 545 Climbing Indianapolis Center
Tue 07:48:41 PM 39.8372 -83.8992 47° Northeast 187 215 6,600 484 Climbing Indianapolis Center
Tue 07:49:22 PM 39.8628 -83.8667 44° Northeast 182 209 6,900 411 Climbing Indianapolis Center
Tue 07:49:54 PM 39.8836 -83.8397 45° Northeast 187 215 7,100 97 Climbing Indianapolis Center
Tue 07:50:24 PM 39.9011 -83.8167 45° Northeast 188 216 7,000  Descending Indianapolis Center
Tue 07:50:42 PM 39.9161 -83.7978 44° Northeast 206 237 7,100  Climbing Indianapolis Center
Tue 07:51:37 PM 39.9533 -83.7481 46° Northeast 208 239 7,000 -52 Descending Indianapolis Center
Tue 07:52:38 PM 39.9950 -83.6961 44° Northeast 207 238 7,000  Level Indianapolis Center
Tue 07:53:29 PM 40.0267 -83.6550 45° Northeast 207 238 7,000  Level Indianapolis Center
Tue 07:54:30 PM 40.0689 -83.6022 44° Northeast 207 238 7,000  Level Indianapolis Center
Tue 07:54:45 PM 40.0806 -83.5869 45° Northeast 207 238 7,000 97 Level Indianapolis Center
Tue 07:55:32 PM 40.1106 -83.5503 43° Northeast 206 237 7,100  Climbing Indianapolis Center
Tue 07:56:34 PM 40.1522 -83.4975 44° Northeast 205 236 7,000  Descending Indianapolis Center
Tue 07:56:53 PM 40.1703 -83.4750 44° Northeast 205 236 7,100  Climbing Indianapolis Center
Tue 07:57:35 PM 40.1947 -83.4469 41° Northeast 205 236 7,000 -52 Descending Indianapolis Center
Tue 07:58:48 PM 40.2486 -83.3781 44° Northeast 200 230 7,000 49 Level Indianapolis Center
Tue 07:59:38 PM 40.2758 -83.3433 44° Northeast 199 229 7,100 52 Climbing Indianapolis Center
Tue 08:00:43 PM 40.3225 -83.2806 46° Northeast 202 232 7,100 -48 Level Indianapolis Center
Tue 08:01:42 PM 40.3631 -83.2289 44° Northeast 205 236 7,000  Descending Indianapolis Center
Tue 08:02:43 PM 40.4047 -83.1761 44° Northeast 205 236 7,100  Climbing Indianapolis Center
Tue 08:03:45 PM 40.4458 -83.1222 45° Northeast 206 237 7,000 -48 Descending Indianapolis Center
Tue 08:04:47 PM 40.4867 -83.0686 45° Northeast 206 237 7,000  Level Indianapolis Center
Tue 08:05:48 PM 40.5261 -83.0208 43° Northeast 208 239 7,000  Level Indianapolis Center
Tue 08:06:50 PM 40.5736 -82.9583 45° Northeast 206 237 7,000 49 Level Indianapolis Center
Tue 08:07:51 PM 40.6139 -82.9042 46° Northeast 205 236 7,100  Climbing Indianapolis Center
Tue 08:08:53 PM 40.6544 -82.8497 46° Northeast 206 237 7,000  Descending Indianapolis Center
Tue 08:09:55 PM 40.6953 -82.7961 45° Northeast 204 235 7,100  Climbing Indianapolis Center
Tue 08:10:56 PM 40.7356 -82.7422 45° Northeast 205 236 7,000 -49 Descending Indianapolis Center
Tue 08:11:58 PM 40.7761 -82.6878 45° Northeast 206 237 7,000 -293 Level Indianapolis Center
Tue 08:12:59 PM 40.8161 -82.6297 48° Northeast 210 242 6,400 -537 Descending Indianapolis Center
Tue 08:14:01 PM 40.8606 -82.5711 45° Northeast 221 254 5,900 -484 Descending Indianapolis Center

Login

Don't have an account? Register now (free) for customized features, flight alerts, and more!